sensor_id;sensor_type;location;lat;lon;timestamp;P1;durP1;ratioP1;P2;durP2;ratioP2
81318;SDS011;70784;48.420;14.830;2023-07-29T00:03:12;4.60;;;2.55;;
81318;SDS011;70784;48.420;14.830;2023-07-29T00:05:58;6.50;;;3.15;;
81318;SDS011;70784;48.420;14.830;2023-07-29T00:08:42;4.63;;;2.60;;
81318;SDS011;70784;48.420;14.830;2023-07-29T00:11:27;5.63;;;3.00;;
81318;SDS011;70784;48.420;14.830;2023-07-29T00:14:11;4.13;;;2.33;;
81318;SDS011;70784;48.420;14.830;2023-07-29T00:16:55;2.75;;;1.58;;
81318;SDS011;70784;48.420;14.830;2023-07-29T00:19:40;3.53;;;2.35;;
81318;SDS011;70784;48.420;14.830;2023-07-29T00:22:25;4.20;;;2.63;;
81318;SDS011;70784;48.420;14.830;2023-07-29T00:25:09;4.72;;;2.53;;
81318;SDS011;70784;48.420;14.830;2023-07-29T00:27:55;5.93;;;2.13;;
81318;SDS011;70784;48.420;14.830;2023-07-29T00:30:40;4.43;;;2.38;;
81318;SDS011;70784;48.420;14.830;2023-07-29T00:33:24;5.30;;;3.05;;
81318;SDS011;70784;48.420;14.830;2023-07-29T00:36:09;4.45;;;2.63;;
81318;SDS011;70784;48.420;14.830;2023-07-29T00:38:53;4.03;;;2.40;;
81318;SDS011;70784;48.420;14.830;2023-07-29T00:41:41;5.13;;;2.63;;
81318;SDS011;70784;48.420;14.830;2023-07-29T00:44:25;3.70;;;2.63;;
81318;SDS011;70784;48.420;14.830;2023-07-29T00:47:10;4.30;;;2.72;;
81318;SDS011;70784;48.420;14.830;2023-07-29T00:49:57;4.22;;;2.05;;
81318;SDS011;70784;48.420;14.830;2023-07-29T00:52:41;3.75;;;2.30;;
81318;SDS011;70784;48.420;14.830;2023-07-29T00:55:26;4.43;;;2.88;;
81318;SDS011;70784;48.420;14.830;2023-07-29T00:58:11;5.18;;;2.75;;
81318;SDS011;70784;48.420;14.830;2023-07-29T01:00:56;4.15;;;2.78;;
81318;SDS011;70784;48.420;14.830;2023-07-29T01:03:41;6.13;;;3.25;;
81318;SDS011;70784;48.420;14.830;2023-07-29T01:10:00;4.20;;;2.72;;
81318;SDS011;70784;48.420;14.830;2023-07-29T01:12:56;3.63;;;2.00;;
81318;SDS011;70784;48.420;14.830;2023-07-29T01:18:38;4.65;;;3.17;;
81318;SDS011;70784;48.420;14.830;2023-07-29T01:21:24;4.72;;;2.50;;
81318;SDS011;70784;48.420;14.830;2023-07-29T01:24:11;8.65;;;4.57;;
81318;SDS011;70784;48.420;14.830;2023-07-29T01:26:56;3.28;;;1.85;;
81318;SDS011;70784;48.420;14.830;2023-07-29T01:29:40;3.28;;;2.13;;
81318;SDS011;70784;48.420;14.830;2023-07-29T01:32:29;2.55;;;1.75;;
81318;SDS011;70784;48.420;14.830;2023-07-29T01:35:29;3.53;;;1.48;;
81318;SDS011;70784;48.420;14.830;2023-07-29T01:38:18;4.75;;;1.80;;
81318;SDS011;70784;48.420;14.830;2023-07-29T01:41:06;3.13;;;1.95;;
81318;SDS011;70784;48.420;14.830;2023-07-29T01:43:52;4.38;;;1.55;;
81318;SDS011;70784;48.420;14.830;2023-07-29T01:46:37;5.95;;;2.28;;
81318;SDS011;70784;48.420;14.830;2023-07-29T01:52:06;2.90;;;1.60;;
81318;SDS011;70784;48.420;14.830;2023-07-29T01:54:50;4.18;;;1.40;;
81318;SDS011;70784;48.420;14.830;2023-07-29T01:57:35;2.72;;;1.15;;
81318;SDS011;70784;48.420;14.830;2023-07-29T02:00:20;2.45;;;1.38;;
81318;SDS011;70784;48.420;14.830;2023-07-29T02:03:06;2.15;;;1.50;;
81318;SDS011;70784;48.420;14.830;2023-07-29T02:05:52;2.50;;;1.58;;
81318;SDS011;70784;48.420;14.830;2023-07-29T02:08:38;2.85;;;1.25;;
81318;SDS011;70784;48.420;14.830;2023-07-29T02:11:25;3.25;;;1.65;;
81318;SDS011;70784;48.420;14.830;2023-07-29T02:14:12;2.97;;;1.60;;
81318;SDS011;70784;48.420;14.830;2023-07-29T02:16:59;3.17;;;1.55;;
81318;SDS011;70784;48.420;14.830;2023-07-29T02:19:46;2.55;;;1.67;;
81318;SDS011;70784;48.420;14.830;2023-07-29T02:22:33;3.10;;;1.55;;
81318;SDS011;70784;48.420;14.830;2023-07-29T02:25:20;3.40;;;1.65;;
81318;SDS011;70784;48.420;14.830;2023-07-29T02:28:07;3.42;;;1.88;;
81318;SDS011;70784;48.420;14.830;2023-07-29T02:31:13;3.00;;;1.33;;
81318;SDS011;70784;48.420;14.830;2023-07-29T02:34:08;2.08;;;1.10;;
81318;SDS011;70784;48.420;14.830;2023-07-29T02:36:55;2.90;;;1.42;;
81318;SDS011;70784;48.420;14.830;2023-07-29T02:39:42;4.07;;;1.42;;
81318;SDS011;70784;48.420;14.830;2023-07-29T02:42:28;2.22;;;1.13;;
81318;SDS011;70784;48.420;14.830;2023-07-29T02:45:15;2.33;;;1.33;;
81318;SDS011;70784;48.420;14.830;2023-07-29T02:48:05;3.28;;;1.10;;
81318;SDS011;70784;48.420;14.830;2023-07-29T02:50:51;2.42;;;1.10;;
81318;SDS011;70784;48.420;14.830;2023-07-29T02:53:38;2.75;;;1.35;;
81318;SDS011;70784;48.420;14.830;2023-07-29T02:56:25;2.38;;;1.00;;
81318;SDS011;70784;48.420;14.830;2023-07-29T02:59:11;3.55;;;1.02;;
81318;SDS011;70784;48.420;14.830;2023-07-29T03:01:58;2.25;;;0.82;;
81318;SDS011;70784;48.420;14.830;2023-07-29T03:04:44;1.67;;;1.23;;
81318;SDS011;70784;48.420;14.830;2023-07-29T03:07:33;4.78;;;1.17;;
81318;SDS011;70784;48.420;14.830;2023-07-29T03:10:20;1.00;;;0.52;;
81318;SDS011;70784;48.420;14.830;2023-07-29T03:13:07;1.70;;;0.93;;
81318;SDS011;70784;48.420;14.830;2023-07-29T03:15:53;3.40;;;0.90;;
81318;SDS011;70784;48.420;14.830;2023-07-29T03:18:50;1.73;;;1.13;;
81318;SDS011;70784;48.420;14.830;2023-07-29T03:21:37;2.03;;;0.95;;
81318;SDS011;70784;48.420;14.830;2023-07-29T03:24:24;2.05;;;1.02;;
81318;SDS011;70784;48.420;14.830;2023-07-29T03:27:11;2.15;;;1.05;;
81318;SDS011;70784;48.420;14.830;2023-07-29T03:30:00;1.75;;;0.88;;
81318;SDS011;70784;48.420;14.830;2023-07-29T03:32:50;2.58;;;0.93;;
81318;SDS011;70784;48.420;14.830;2023-07-29T03:35:39;1.92;;;0.82;;
81318;SDS011;70784;48.420;14.830;2023-07-29T03:38:28;2.58;;;0.65;;
81318;SDS011;70784;48.420;14.830;2023-07-29T03:41:15;2.13;;;0.95;;
81318;SDS011;70784;48.420;14.830;2023-07-29T03:44:02;4.75;;;1.05;;
81318;SDS011;70784;48.420;14.830;2023-07-29T03:46:48;2.97;;;0.77;;
81318;SDS011;70784;48.420;14.830;2023-07-29T03:49:38;2.20;;;1.17;;
81318;SDS011;70784;48.420;14.830;2023-07-29T03:52:24;1.83;;;1.15;;
81318;SDS011;70784;48.420;14.830;2023-07-29T03:55:11;1.50;;;0.85;;
81318;SDS011;70784;48.420;14.830;2023-07-29T03:57:58;1.50;;;0.73;;
81318;SDS011;70784;48.420;14.830;2023-07-29T04:00:45;2.17;;;1.08;;
81318;SDS011;70784;48.420;14.830;2023-07-29T04:03:33;1.52;;;0.85;;
81318;SDS011;70784;48.420;14.830;2023-07-29T04:06:20;1.13;;;0.68;;
81318;SDS011;70784;48.420;14.830;2023-07-29T04:09:07;1.83;;;1.25;;
81318;SDS011;70784;48.420;14.830;2023-07-29T04:11:54;3.85;;;1.20;;
81318;SDS011;70784;48.420;14.830;2023-07-29T04:14:44;1.27;;;0.68;;
81318;SDS011;70784;48.420;14.830;2023-07-29T04:17:30;1.73;;;0.80;;
81318;SDS011;70784;48.420;14.830;2023-07-29T04:20:17;2.05;;;0.80;;
81318;SDS011;70784;48.420;14.830;2023-07-29T04:23:06;2.85;;;1.50;;
81318;SDS011;70784;48.420;14.830;2023-07-29T04:25:53;1.60;;;0.88;;
81318;SDS011;70784;48.420;14.830;2023-07-29T04:28:40;1.50;;;0.85;;
81318;SDS011;70784;48.420;14.830;2023-07-29T04:31:28;2.15;;;0.82;;
81318;SDS011;70784;48.420;14.830;2023-07-29T04:34:14;2.00;;;1.33;;
81318;SDS011;70784;48.420;14.830;2023-07-29T04:37:00;1.60;;;0.82;;
81318;SDS011;70784;48.420;14.830;2023-07-29T04:39:47;2.70;;;1.65;;
81318;SDS011;70784;48.420;14.830;2023-07-29T04:42:33;1.63;;;0.70;;
81318;SDS011;70784;48.420;14.830;2023-07-29T04:45:22;2.00;;;1.38;;
81318;SDS011;70784;48.420;14.830;2023-07-29T04:48:09;1.40;;;1.10;;
81318;SDS011;70784;48.420;14.830;2023-07-29T04:50:56;1.60;;;1.02;;
81318;SDS011;70784;48.420;14.830;2023-07-29T04:53:42;1.67;;;0.90;;
81318;SDS011;70784;48.420;14.830;2023-07-29T04:56:29;2.13;;;1.15;;
81318;SDS011;70784;48.420;14.830;2023-07-29T04:59:16;0.82;;;0.52;;
81318;SDS011;70784;48.420;14.830;2023-07-29T05:02:06;1.33;;;1.00;;
81318;SDS011;70784;48.420;14.830;2023-07-29T05:04:52;1.92;;;0.90;;
81318;SDS011;70784;48.420;14.830;2023-07-29T05:07:39;1.08;;;0.52;;
81318;SDS011;70784;48.420;14.830;2023-07-29T05:10:26;1.67;;;0.93;;
81318;SDS011;70784;48.420;14.830;2023-07-29T05:13:12;2.40;;;0.77;;
81318;SDS011;70784;48.420;14.830;2023-07-29T05:15:59;2.10;;;0.52;;
81318;SDS011;70784;48.420;14.830;2023-07-29T05:18:45;1.90;;;1.10;;
81318;SDS011;70784;48.420;14.830;2023-07-29T05:21:36;3.30;;;1.05;;
81318;SDS011;70784;48.420;14.830;2023-07-29T05:24:23;2.90;;;0.77;;
81318;SDS011;70784;48.420;14.830;2023-07-29T05:27:10;1.23;;;0.65;;
81318;SDS011;70784;48.420;14.830;2023-07-29T05:29:57;1.35;;;0.70;;
81318;SDS011;70784;48.420;14.830;2023-07-29T05:32:44;1.15;;;0.45;;
81318;SDS011;70784;48.420;14.830;2023-07-29T05:35:30;0.80;;;0.52;;
81318;SDS011;70784;48.420;14.830;2023-07-29T05:38:17;1.05;;;0.47;;
81318;SDS011;70784;48.420;14.830;2023-07-29T05:41:06;1.20;;;0.63;;
81318;SDS011;70784;48.420;14.830;2023-07-29T05:43:53;3.30;;;0.65;;
81318;SDS011;70784;48.420;14.830;2023-07-29T05:46:39;0.52;;;0.43;;
81318;SDS011;70784;48.420;14.830;2023-07-29T05:49:25;1.05;;;0.43;;
81318;SDS011;70784;48.420;14.830;2023-07-29T05:52:12;0.73;;;0.52;;
81318;SDS011;70784;48.420;14.830;2023-07-29T05:55:00;0.57;;;0.32;;
81318;SDS011;70784;48.420;14.830;2023-07-29T05:57:52;1.73;;;0.68;;
81318;SDS011;70784;48.420;14.830;2023-07-29T06:00:39;1.38;;;0.73;;
81318;SDS011;70784;48.420;14.830;2023-07-29T06:03:27;1.00;;;0.47;;
81318;SDS011;70784;48.420;14.830;2023-07-29T06:06:14;2.17;;;0.63;;
81318;SDS011;70784;48.420;14.830;2023-07-29T06:09:01;1.33;;;0.75;;
81318;SDS011;70784;48.420;14.830;2023-07-29T06:11:48;1.92;;;0.65;;
81318;SDS011;70784;48.420;14.830;2023-07-29T06:14:41;0.70;;;0.38;;
81318;SDS011;70784;48.420;14.830;2023-07-29T06:17:27;0.32;;;0.28;;
81318;SDS011;70784;48.420;14.830;2023-07-29T06:20:14;1.92;;;0.70;;
81318;SDS011;70784;48.420;14.830;2023-07-29T06:23:04;2.20;;;1.13;;
81318;SDS011;70784;48.420;14.830;2023-07-29T06:25:50;1.75;;;0.45;;
81318;SDS011;70784;48.420;14.830;2023-07-29T06:28:37;1.02;;;0.32;;
81318;SDS011;70784;48.420;14.830;2023-07-29T06:31:23;1.20;;;0.43;;
81318;SDS011;70784;48.420;14.830;2023-07-29T06:34:10;1.85;;;0.80;;
81318;SDS011;70784;48.420;14.830;2023-07-29T06:37:00;1.00;;;0.30;;
81318;SDS011;70784;48.420;14.830;2023-07-29T06:39:47;0.45;;;0.28;;
81318;SDS011;70784;48.420;14.830;2023-07-29T06:42:33;4.13;;;0.77;;
81318;SDS011;70784;48.420;14.830;2023-07-29T06:45:21;1.30;;;0.75;;
81318;SDS011;70784;48.420;14.830;2023-07-29T06:48:05;2.08;;;0.50;;
81318;SDS011;70784;48.420;14.830;2023-07-29T06:50:50;1.10;;;0.60;;
81318;SDS011;70784;48.420;14.830;2023-07-29T06:53:35;1.45;;;0.70;;
81318;SDS011;70784;48.420;14.830;2023-07-29T06:56:19;0.70;;;0.45;;
81318;SDS011;70784;48.420;14.830;2023-07-29T06:59:04;1.17;;;0.50;;
81318;SDS011;70784;48.420;14.830;2023-07-29T07:01:48;1.20;;;0.82;;
81318;SDS011;70784;48.420;14.830;2023-07-29T07:04:33;1.98;;;0.73;;
81318;SDS011;70784;48.420;14.830;2023-07-29T07:07:17;2.47;;;0.63;;
81318;SDS011;70784;48.420;14.830;2023-07-29T07:10:02;1.33;;;0.50;;
81318;SDS011;70784;48.420;14.830;2023-07-29T07:12:47;1.35;;;0.57;;
81318;SDS011;70784;48.420;14.830;2023-07-29T07:15:31;1.55;;;0.55;;
81318;SDS011;70784;48.420;14.830;2023-07-29T07:18:16;1.38;;;0.88;;
81318;SDS011;70784;48.420;14.830;2023-07-29T07:21:01;3.53;;;0.75;;
81318;SDS011;70784;48.420;14.830;2023-07-29T07:23:45;0.85;;;0.82;;
81318;SDS011;70784;48.420;14.830;2023-07-29T07:26:29;1.25;;;0.65;;
81318;SDS011;70784;48.420;14.830;2023-07-29T07:29:14;1.00;;;0.50;;
81318;SDS011;70784;48.420;14.830;2023-07-29T07:31:59;0.95;;;0.57;;
81318;SDS011;70784;48.420;14.830;2023-07-29T07:34:43;1.10;;;0.40;;
81318;SDS011;70784;48.420;14.830;2023-07-29T07:37:28;1.00;;;0.60;;
81318;SDS011;70784;48.420;14.830;2023-07-29T07:40:12;1.30;;;0.60;;
81318;SDS011;70784;48.420;14.830;2023-07-29T07:42:57;1.40;;;0.43;;
81318;SDS011;70784;48.420;14.830;2023-07-29T07:45:41;0.57;;;0.40;;
81318;SDS011;70784;48.420;14.830;2023-07-29T07:48:26;2.55;;;0.90;;
81318;SDS011;70784;48.420;14.830;2023-07-29T07:51:12;1.30;;;0.52;;
81318;SDS011;70784;48.420;14.830;2023-07-29T07:53:57;1.13;;;0.68;;
81318;SDS011;70784;48.420;14.830;2023-07-29T07:56:42;0.38;;;0.20;;
81318;SDS011;70784;48.420;14.830;2023-07-29T07:59:27;2.17;;;1.20;;
81318;SDS011;70784;48.420;14.830;2023-07-29T08:02:12;0.98;;;0.52;;
81318;SDS011;70784;48.420;14.830;2023-07-29T08:04:57;0.52;;;0.32;;
81318;SDS011;70784;48.420;14.830;2023-07-29T08:07:43;0.50;;;0.22;;
81318;SDS011;70784;48.420;14.830;2023-07-29T08:10:28;1.10;;;0.70;;
81318;SDS011;70784;48.420;14.830;2023-07-29T08:13:13;1.23;;;0.70;;
81318;SDS011;70784;48.420;14.830;2023-07-29T08:15:57;3.88;;;0.52;;
81318;SDS011;70784;48.420;14.830;2023-07-29T08:18:42;1.02;;;0.35;;
81318;SDS011;70784;48.420;14.830;2023-07-29T08:21:27;1.02;;;0.60;;
81318;SDS011;70784;48.420;14.830;2023-07-29T08:24:12;0.90;;;0.63;;
81318;SDS011;70784;48.420;14.830;2023-07-29T08:26:56;0.80;;;0.40;;
81318;SDS011;70784;48.420;14.830;2023-07-29T08:29:41;0.70;;;0.32;;
81318;SDS011;70784;48.420;14.830;2023-07-29T08:32:25;1.13;;;0.60;;
81318;SDS011;70784;48.420;14.830;2023-07-29T08:35:10;1.67;;;1.10;;
81318;SDS011;70784;48.420;14.830;2023-07-29T08:37:54;2.00;;;0.75;;
81318;SDS011;70784;48.420;14.830;2023-07-29T08:40:45;2.53;;;0.80;;
81318;SDS011;70784;48.420;14.830;2023-07-29T08:43:37;0.85;;;0.40;;
81318;SDS011;70784;48.420;14.830;2023-07-29T08:46:23;3.08;;;0.68;;
81318;SDS011;70784;48.420;14.830;2023-07-29T08:49:08;1.42;;;0.75;;
81318;SDS011;70784;48.420;14.830;2023-07-29T08:51:56;1.90;;;0.75;;
81318;SDS011;70784;48.420;14.830;2023-07-29T08:54:41;1.40;;;0.70;;
81318;SDS011;70784;48.420;14.830;2023-07-29T08:57:25;1.08;;;0.55;;
81318;SDS011;70784;48.420;14.830;2023-07-29T09:00:11;1.73;;;0.70;;
81318;SDS011;70784;48.420;14.830;2023-07-29T09:02:57;1.60;;;1.02;;
81318;SDS011;70784;48.420;14.830;2023-07-29T09:05:46;1.23;;;0.88;;
81318;SDS011;70784;48.420;14.830;2023-07-29T09:08:31;1.38;;;0.45;;
81318;SDS011;70784;48.420;14.830;2023-07-29T09:11:17;0.85;;;0.55;;
81318;SDS011;70784;48.420;14.830;2023-07-29T09:14:02;2.17;;;0.85;;
81318;SDS011;70784;48.420;14.830;2023-07-29T09:16:46;1.27;;;0.52;;
81318;SDS011;70784;48.420;14.830;2023-07-29T09:19:32;1.13;;;0.63;;
81318;SDS011;70784;48.420;14.830;2023-07-29T09:22:20;1.13;;;0.45;;
81318;SDS011;70784;48.420;14.830;2023-07-29T09:25:05;3.10;;;1.08;;
81318;SDS011;70784;48.420;14.830;2023-07-29T09:27:50;2.42;;;0.80;;
81318;SDS011;70784;48.420;14.830;2023-07-29T09:30:34;1.05;;;0.63;;
81318;SDS011;70784;48.420;14.830;2023-07-29T09:33:19;0.88;;;0.47;;
81318;SDS011;70784;48.420;14.830;2023-07-29T09:36:09;1.95;;;0.82;;
81318;SDS011;70784;48.420;14.830;2023-07-29T09:38:55;2.40;;;0.75;;
81318;SDS011;70784;48.420;14.830;2023-07-29T09:41:40;0.93;;;0.32;;
81318;SDS011;70784;48.420;14.830;2023-07-29T09:47:08;2.03;;;0.43;;
81318;SDS011;70784;48.420;14.830;2023-07-29T09:49:53;1.27;;;0.45;;
81318;SDS011;70784;48.420;14.830;2023-07-29T09:52:38;1.45;;;0.65;;
81318;SDS011;70784;48.420;14.830;2023-07-29T09:55:22;1.05;;;0.65;;
81318;SDS011;70784;48.420;14.830;2023-07-29T09:58:07;0.57;;;0.55;;
81318;SDS011;70784;48.420;14.830;2023-07-29T10:00:52;1.20;;;0.50;;
81318;SDS011;70784;48.420;14.830;2023-07-29T10:03:36;1.50;;;0.73;;
81318;SDS011;70784;48.420;14.830;2023-07-29T10:06:21;1.70;;;1.02;;
81318;SDS011;70784;48.420;14.830;2023-07-29T10:09:07;2.20;;;0.75;;
81318;SDS011;70784;48.420;14.830;2023-07-29T10:11:51;1.60;;;0.80;;
81318;SDS011;70784;48.420;14.830;2023-07-29T10:14:40;1.40;;;0.88;;
81318;SDS011;70784;48.420;14.830;2023-07-29T10:17:26;1.70;;;0.88;;
81318;SDS011;70784;48.420;14.830;2023-07-29T10:20:10;1.20;;;0.70;;
81318;SDS011;70784;48.420;14.830;2023-07-29T10:22:56;1.27;;;0.77;;
81318;SDS011;70784;48.420;14.830;2023-07-29T10:25:46;1.25;;;0.90;;
81318;SDS011;70784;48.420;14.830;2023-07-29T10:28:32;2.78;;;0.73;;
81318;SDS011;70784;48.420;14.830;2023-07-29T10:31:18;0.95;;;0.65;;
81318;SDS011;70784;48.420;14.830;2023-07-29T10:34:06;1.33;;;0.47;;
81318;SDS011;70784;48.420;14.830;2023-07-29T10:36:51;1.67;;;0.82;;
81318;SDS011;70784;48.420;14.830;2023-07-29T10:39:40;3.42;;;0.47;;
81318;SDS011;70784;48.420;14.830;2023-07-29T10:42:36;1.35;;;0.95;;
81318;SDS011;70784;48.420;14.830;2023-07-29T10:45:21;2.35;;;0.45;;
81318;SDS011;70784;48.420;14.830;2023-07-29T10:48:13;1.80;;;0.82;;
81318;SDS011;70784;48.420;14.830;2023-07-29T10:51:29;6.18;;;0.88;;
81318;SDS011;70784;48.420;14.830;2023-07-29T10:54:14;0.90;;;0.63;;
81318;SDS011;70784;48.420;14.830;2023-07-29T10:56:58;5.22;;;1.10;;
81318;SDS011;70784;48.420;14.830;2023-07-29T11:00:04;1.00;;;0.52;;
81318;SDS011;70784;48.420;14.830;2023-07-29T11:02:59;1.48;;;0.65;;
81318;SDS011;70784;48.420;14.830;2023-07-29T11:05:46;1.33;;;0.85;;
81318;SDS011;70784;48.420;14.830;2023-07-29T11:08:33;2.20;;;0.30;;
81318;SDS011;70784;48.420;14.830;2023-07-29T11:11:18;4.25;;;0.55;;
81318;SDS011;70784;48.420;14.830;2023-07-29T11:14:03;4.53;;;0.95;;
81318;SDS011;70784;48.420;14.830;2023-07-29T11:16:49;1.30;;;0.63;;
81318;SDS011;70784;48.420;14.830;2023-07-29T11:19:36;2.20;;;0.82;;
81318;SDS011;70784;48.420;14.830;2023-07-29T11:22:23;2.00;;;0.90;;
81318;SDS011;70784;48.420;14.830;2023-07-29T11:25:12;1.88;;;1.00;;
81318;SDS011;70784;48.420;14.830;2023-07-29T11:27:58;4.80;;;0.70;;
81318;SDS011;70784;48.420;14.830;2023-07-29T11:30:44;2.13;;;0.88;;
81318;SDS011;70784;48.420;14.830;2023-07-29T11:33:28;1.52;;;0.80;;
81318;SDS011;70784;48.420;14.830;2023-07-29T11:36:18;2.83;;;1.27;;
81318;SDS011;70784;48.420;14.830;2023-07-29T11:39:10;1.77;;;1.08;;
81318;SDS011;70784;48.420;14.830;2023-07-29T11:41:56;4.13;;;1.15;;
81318;SDS011;70784;48.420;14.830;2023-07-29T11:44:40;4.43;;;0.85;;
81318;SDS011;70784;48.420;14.830;2023-07-29T11:47:26;2.00;;;1.05;;
81318;SDS011;70784;48.420;14.830;2023-07-29T11:50:11;1.77;;;1.20;;
81318;SDS011;70784;48.420;14.830;2023-07-29T11:53:00;1.00;;;0.63;;
81318;SDS011;70784;48.420;14.830;2023-07-29T11:55:44;2.35;;;1.00;;
81318;SDS011;70784;48.420;14.830;2023-07-29T11:58:36;1.67;;;1.20;;
81318;SDS011;70784;48.420;14.830;2023-07-29T12:01:21;2.10;;;1.00;;
81318;SDS011;70784;48.420;14.830;2023-07-29T12:04:06;3.15;;;1.40;;
81318;SDS011;70784;48.420;14.830;2023-07-29T12:06:51;2.47;;;1.38;;
81318;SDS011;70784;48.420;14.830;2023-07-29T12:09:35;1.08;;;0.73;;
81318;SDS011;70784;48.420;14.830;2023-07-29T12:12:22;4.30;;;1.42;;
81318;SDS011;70784;48.420;14.830;2023-07-29T12:15:07;1.95;;;1.10;;
81318;SDS011;70784;48.420;14.830;2023-07-29T12:17:54;2.53;;;1.38;;
81318;SDS011;70784;48.420;14.830;2023-07-29T12:20:42;1.88;;;0.82;;
81318;SDS011;70784;48.420;14.830;2023-07-29T12:23:28;1.80;;;1.58;;
81318;SDS011;70784;48.420;14.830;2023-07-29T12:26:13;1.85;;;1.40;;
81318;SDS011;70784;48.420;14.830;2023-07-29T12:28:58;1.40;;;0.90;;
81318;SDS011;70784;48.420;14.830;2023-07-29T12:31:42;1.52;;;1.25;;
81318;SDS011;70784;48.420;14.830;2023-07-29T12:34:28;1.50;;;0.57;;
81318;SDS011;70784;48.420;14.830;2023-07-29T12:37:14;1.20;;;0.73;;
81318;SDS011;70784;48.420;14.830;2023-07-29T12:39:59;2.78;;;1.02;;
81318;SDS011;70784;48.420;14.830;2023-07-29T12:42:43;1.13;;;0.70;;
81318;SDS011;70784;48.420;14.830;2023-07-29T12:45:28;1.38;;;0.65;;
81318;SDS011;70784;48.420;14.830;2023-07-29T12:48:20;1.10;;;0.75;;
81318;SDS011;70784;48.420;14.830;2023-07-29T12:51:05;1.98;;;0.82;;
81318;SDS011;70784;48.420;14.830;2023-07-29T12:53:50;3.10;;;0.85;;
81318;SDS011;70784;48.420;14.830;2023-07-29T12:56:34;1.45;;;1.10;;
81318;SDS011;70784;48.420;14.830;2023-07-29T12:59:19;1.73;;;1.05;;
81318;SDS011;70784;48.420;14.830;2023-07-29T13:02:04;1.40;;;0.50;;
81318;SDS011;70784;48.420;14.830;2023-07-29T13:04:48;1.35;;;0.70;;
81318;SDS011;70784;48.420;14.830;2023-07-29T13:07:33;0.93;;;0.63;;
81318;SDS011;70784;48.420;14.830;2023-07-29T13:10:17;2.15;;;1.02;;
81318;SDS011;70784;48.420;14.830;2023-07-29T13:13:02;2.58;;;1.60;;
81318;SDS011;70784;48.420;14.830;2023-07-29T13:15:46;1.80;;;0.98;;
81318;SDS011;70784;48.420;14.830;2023-07-29T13:18:31;1.73;;;1.08;;
81318;SDS011;70784;48.420;14.830;2023-07-29T13:21:16;1.05;;;0.60;;
81318;SDS011;70784;48.420;14.830;2023-07-29T13:24:01;1.17;;;0.55;;
81318;SDS011;70784;48.420;14.830;2023-07-29T13:26:45;1.33;;;0.70;;
81318;SDS011;70784;48.420;14.830;2023-07-29T13:29:30;1.95;;;0.90;;
81318;SDS011;70784;48.420;14.830;2023-07-29T13:32:14;1.25;;;0.77;;
81318;SDS011;70784;48.420;14.830;2023-07-29T13:34:59;1.50;;;1.02;;
81318;SDS011;70784;48.420;14.830;2023-07-29T13:37:44;1.63;;;0.75;;
81318;SDS011;70784;48.420;14.830;2023-07-29T13:40:28;1.65;;;1.23;;
81318;SDS011;70784;48.420;14.830;2023-07-29T13:43:13;1.48;;;0.88;;
81318;SDS011;70784;48.420;14.830;2023-07-29T13:45:58;1.90;;;1.15;;
81318;SDS011;70784;48.420;14.830;2023-07-29T13:48:42;1.08;;;0.80;;
81318;SDS011;70784;48.420;14.830;2023-07-29T13:51:26;0.95;;;0.47;;
81318;SDS011;70784;48.420;14.830;2023-07-29T13:54:11;1.63;;;0.88;;
81318;SDS011;70784;48.420;14.830;2023-07-29T13:56:55;2.00;;;1.20;;
81318;SDS011;70784;48.420;14.830;2023-07-29T13:59:40;1.63;;;1.15;;
81318;SDS011;70784;48.420;14.830;2023-07-29T14:02:25;1.85;;;0.63;;
81318;SDS011;70784;48.420;14.830;2023-07-29T14:05:12;2.10;;;1.02;;
81318;SDS011;70784;48.420;14.830;2023-07-29T14:07:58;2.20;;;1.00;;
81318;SDS011;70784;48.420;14.830;2023-07-29T14:10:42;1.30;;;0.98;;
81318;SDS011;70784;48.420;14.830;2023-07-29T14:13:27;1.63;;;0.93;;
81318;SDS011;70784;48.420;14.830;2023-07-29T14:16:11;0.77;;;0.55;;
81318;SDS011;70784;48.420;14.830;2023-07-29T14:18:56;0.85;;;0.63;;
81318;SDS011;70784;48.420;14.830;2023-07-29T14:21:40;1.40;;;0.90;;
81318;SDS011;70784;48.420;14.830;2023-07-29T14:24:25;1.08;;;0.50;;
81318;SDS011;70784;48.420;14.830;2023-07-29T14:27:10;5.63;;;1.50;;
81318;SDS011;70784;48.420;14.830;2023-07-29T14:29:54;1.00;;;0.57;;
81318;SDS011;70784;48.420;14.830;2023-07-29T14:32:39;2.13;;;1.33;;
81318;SDS011;70784;48.420;14.830;2023-07-29T14:35:23;2.53;;;1.67;;
81318;SDS011;70784;48.420;14.830;2023-07-29T14:38:08;1.35;;;0.73;;
81318;SDS011;70784;48.420;14.830;2023-07-29T14:40:52;1.35;;;0.75;;
81318;SDS011;70784;48.420;14.830;2023-07-29T14:43:38;1.67;;;1.20;;
81318;SDS011;70784;48.420;14.830;2023-07-29T14:46:23;2.28;;;0.88;;
81318;SDS011;70784;48.420;14.830;2023-07-29T14:49:07;4.03;;;1.50;;
81318;SDS011;70784;48.420;14.830;2023-07-29T14:51:52;1.67;;;1.08;;
81318;SDS011;70784;48.420;14.830;2023-07-29T14:54:36;1.60;;;0.85;;
81318;SDS011;70784;48.420;14.830;2023-07-29T14:57:21;1.45;;;1.00;;
81318;SDS011;70784;48.420;14.830;2023-07-29T15:00:06;2.42;;;1.48;;
81318;SDS011;70784;48.420;14.830;2023-07-29T15:02:51;3.78;;;1.50;;
81318;SDS011;70784;48.420;14.830;2023-07-29T15:05:36;1.55;;;0.90;;
81318;SDS011;70784;48.420;14.830;2023-07-29T15:08:20;1.30;;;1.10;;
81318;SDS011;70784;48.420;14.830;2023-07-29T15:11:05;2.20;;;1.40;;
81318;SDS011;70784;48.420;14.830;2023-07-29T15:13:50;3.47;;;1.15;;
81318;SDS011;70784;48.420;14.830;2023-07-29T15:16:34;1.02;;;0.75;;
81318;SDS011;70784;48.420;14.830;2023-07-29T15:19:19;1.00;;;0.73;;
81318;SDS011;70784;48.420;14.830;2023-07-29T15:22:04;1.90;;;1.00;;
81318;SDS011;70784;48.420;14.830;2023-07-29T15:24:48;1.77;;;1.15;;
81318;SDS011;70784;48.420;14.830;2023-07-29T15:27:33;2.80;;;1.30;;
81318;SDS011;70784;48.420;14.830;2023-07-29T15:30:18;2.65;;;1.75;;
81318;SDS011;70784;48.420;14.830;2023-07-29T15:33:02;1.40;;;0.88;;
81318;SDS011;70784;48.420;14.830;2023-07-29T15:35:47;1.77;;;1.08;;
81318;SDS011;70784;48.420;14.830;2023-07-29T15:38:32;1.88;;;0.85;;
81318;SDS011;70784;48.420;14.830;2023-07-29T15:41:17;2.13;;;0.65;;
81318;SDS011;70784;48.420;14.830;2023-07-29T15:44:02;1.65;;;0.77;;
81318;SDS011;70784;48.420;14.830;2023-07-29T15:46:46;3.00;;;1.27;;
81318;SDS011;70784;48.420;14.830;2023-07-29T15:49:30;1.88;;;1.10;;
81318;SDS011;70784;48.420;14.830;2023-07-29T15:52:15;2.50;;;1.13;;
81318;SDS011;70784;48.420;14.830;2023-07-29T15:55:00;1.20;;;0.77;;
81318;SDS011;70784;48.420;14.830;2023-07-29T15:57:45;2.03;;;0.93;;
81318;SDS011;70784;48.420;14.830;2023-07-29T16:00:30;2.60;;;1.75;;
81318;SDS011;70784;48.420;14.830;2023-07-29T16:03:15;1.85;;;1.17;;
81318;SDS011;70784;48.420;14.830;2023-07-29T16:05:59;2.05;;;1.55;;
81318;SDS011;70784;48.420;14.830;2023-07-29T16:08:46;1.77;;;1.15;;
81318;SDS011;70784;48.420;14.830;2023-07-29T16:11:32;2.10;;;1.13;;
81318;SDS011;70784;48.420;14.830;2023-07-29T16:14:17;1.75;;;0.98;;
81318;SDS011;70784;48.420;14.830;2023-07-29T16:17:03;1.27;;;0.70;;
81318;SDS011;70784;48.420;14.830;2023-07-29T16:19:52;1.85;;;1.25;;
81318;SDS011;70784;48.420;14.830;2023-07-29T16:22:40;2.38;;;0.80;;
81318;SDS011;70784;48.420;14.830;2023-07-29T16:25:25;2.10;;;1.15;;
81318;SDS011;70784;48.420;14.830;2023-07-29T16:28:09;1.85;;;1.15;;
81318;SDS011;70784;48.420;14.830;2023-07-29T16:30:54;1.90;;;0.82;;
81318;SDS011;70784;48.420;14.830;2023-07-29T16:33:38;2.58;;;1.35;;
81318;SDS011;70784;48.420;14.830;2023-07-29T16:36:23;1.73;;;1.20;;
81318;SDS011;70784;48.420;14.830;2023-07-29T16:39:07;2.53;;;1.33;;